sensor_id;sensor_type;location;lat;lon;timestamp;pressure;altitude;pressure_sealevel;temperature;humidity
56272;BME280;42177;48.914;18.160;2023-09-18T00:03:30;987.4;;;18.5;100
56272;BME280;42177;48.914;18.160;2023-09-18T00:08:31;987.4;;;18.5;100
56272;BME280;42177;48.914;18.160;2023-09-18T00:13:30;987.4;;;18.7;100
56272;BME280;42177;48.914;18.160;2023-09-18T00:18:30;987.4;;;18.7;100
56272;BME280;42177;48.914;18.160;2023-09-18T00:23:30;987.4;;;18.6;100
56272;BME280;42177;48.914;18.160;2023-09-18T00:28:30;987.4;;;18.6;100
56272;BME280;42177;48.914;18.160;2023-09-18T00:33:31;987.4;;;18.5;100
56272;BME280;42177;48.914;18.160;2023-09-18T00:38:30;987.4;;;18.5;100
56272;BME280;42177;48.914;18.160;2023-09-18T00:43:30;987.3;;;18.3;100
56272;BME280;42177;48.914;18.160;2023-09-18T00:48:30;987.3;;;18.3;100
56272;BME280;42177;48.914;18.160;2023-09-18T00:53:30;987.1;;;18.4;100
56272;BME280;42177;48.914;18.160;2023-09-18T00:58:30;987.1;;;18.4;100
56272;BME280;42177;48.914;18.160;2023-09-18T01:03:30;987.1;;;18.3;100
56272;BME280;42177;48.914;18.160;2023-09-18T01:08:30;987.1;;;18.3;100
56272;BME280;42177;48.914;18.160;2023-09-18T01:13:33;987.2;;;18.5;100
56272;BME280;42177;48.914;18.160;2023-09-18T01:18:30;987.2;;;18.5;100
56272;BME280;42177;48.914;18.160;2023-09-18T01:23:30;987.2;;;18.2;100
56272;BME280;42177;48.914;18.160;2023-09-18T01:28:30;987.2;;;18.2;100
56272;BME280;42177;48.914;18.160;2023-09-18T01:33:30;987;;;18;100
56272;BME280;42177;48.914;18.160;2023-09-18T01:38:30;987;;;18;100
56272;BME280;42177;48.914;18.160;2023-09-18T01:43:30;987;;;17.9;100
56272;BME280;42177;48.914;18.160;2023-09-18T01:48:30;987;;;17.9;100
56272;BME280;42177;48.914;18.160;2023-09-18T01:53:30;987;;;17.7;100
56272;BME280;42177;48.914;18.160;2023-09-18T01:58:30;987;;;17.7;100
56272;BME280;42177;48.914;18.160;2023-09-18T02:03:30;987.1;;;17.6;100
56272;BME280;42177;48.914;18.160;2023-09-18T02:08:30;987.1;;;17.6;100
56272;BME280;42177;48.914;18.160;2023-09-18T02:13:30;987.1;;;17.5;100
56272;BME280;42177;48.914;18.160;2023-09-18T02:18:30;987.1;;;17.5;100
56272;BME280;42177;48.914;18.160;2023-09-18T02:23:30;986.9;;;17.7;100
56272;BME280;42177;48.914;18.160;2023-09-18T02:28:30;986.9;;;17.7;100
56272;BME280;42177;48.914;18.160;2023-09-18T02:33:30;986.8;;;17.9;100
56272;BME280;42177;48.914;18.160;2023-09-18T02:38:30;986.8;;;17.9;100
56272;BME280;42177;48.914;18.160;2023-09-18T02:43:30;986.8;;;17.3;100
56272;BME280;42177;48.914;18.160;2023-09-18T02:48:30;986.8;;;17.3;100
56272;BME280;42177;48.914;18.160;2023-09-18T02:53:30;986.7;;;17.6;100
56272;BME280;42177;48.914;18.160;2023-09-18T02:58:30;986.7;;;17.6;100
56272;BME280;42177;48.914;18.160;2023-09-18T03:03:30;986.8;;;17.4;100
56272;BME280;42177;48.914;18.160;2023-09-18T03:08:30;986.8;;;17.4;100
56272;BME280;42177;48.914;18.160;2023-09-18T03:13:30;986.7;;;17.2;100
56272;BME280;42177;48.914;18.160;2023-09-18T03:18:30;986.7;;;17.2;100
56272;BME280;42177;48.914;18.160;2023-09-18T03:23:30;986.7;;;17.3;100
56272;BME280;42177;48.914;18.160;2023-09-18T03:28:30;986.7;;;17.3;100
56272;BME280;42177;48.914;18.160;2023-09-18T03:33:30;986.6;;;17;100
56272;BME280;42177;48.914;18.160;2023-09-18T03:38:30;986.6;;;17;100
56272;BME280;42177;48.914;18.160;2023-09-18T03:43:30;986.6;;;16.9;100
56272;BME280;42177;48.914;18.160;2023-09-18T03:48:30;986.6;;;16.9;100
56272;BME280;42177;48.914;18.160;2023-09-18T03:53:31;986.5;;;16.8;100
56272;BME280;42177;48.914;18.160;2023-09-18T03:58:30;986.5;;;16.8;100
56272;BME280;42177;48.914;18.160;2023-09-18T04:03:30;986.4;;;16.9;100
56272;BME280;42177;48.914;18.160;2023-09-18T04:08:30;986.4;;;16.9;100
56272;BME280;42177;48.914;18.160;2023-09-18T04:13:30;986.2;;;16.7;100
56272;BME280;42177;48.914;18.160;2023-09-18T04:18:30;986.2;;;16.7;100
56272;BME280;42177;48.914;18.160;2023-09-18T04:23:30;986.1;;;16.9;100
56272;BME280;42177;48.914;18.160;2023-09-18T04:28:30;986.1;;;16.9;100
56272;BME280;42177;48.914;18.160;2023-09-18T04:33:30;986.1;;;16.8;100
56272;BME280;42177;48.914;18.160;2023-09-18T04:38:30;986.1;;;16.8;100
56272;BME280;42177;48.914;18.160;2023-09-18T04:43:30;986.1;;;17;100
56272;BME280;42177;48.914;18.160;2023-09-18T04:48:30;986.1;;;17;100
56272;BME280;42177;48.914;18.160;2023-09-18T04:53:31;986;;;17;100
56272;BME280;42177;48.914;18.160;2023-09-18T04:58:31;986;;;17;100
56272;BME280;42177;48.914;18.160;2023-09-18T05:03:30;985.9;;;17;100
56272;BME280;42177;48.914;18.160;2023-09-18T05:08:30;985.9;;;17;100
56272;BME280;42177;48.914;18.160;2023-09-18T05:13:30;985.9;;;16.9;100
56272;BME280;42177;48.914;18.160;2023-09-18T05:18:30;985.9;;;16.9;100
56272;BME280;42177;48.914;18.160;2023-09-18T05:23:30;986.1;;;17;100
56272;BME280;42177;48.914;18.160;2023-09-18T05:28:30;986.1;;;17;100
56272;BME280;42177;48.914;18.160;2023-09-18T05:33:30;986.1;;;17.3;100
56272;BME280;42177;48.914;18.160;2023-09-18T05:38:30;986.1;;;17.3;100
56272;BME280;42177;48.914;18.160;2023-09-18T05:43:30;985.9;;;17.7;100
56272;BME280;42177;48.914;18.160;2023-09-18T05:48:30;985.9;;;17.7;100
56272;BME280;42177;48.914;18.160;2023-09-18T05:53:30;985.8;;;18.1;100
56272;BME280;42177;48.914;18.160;2023-09-18T05:58:30;985.8;;;18.1;100
56272;BME280;42177;48.914;18.160;2023-09-18T06:03:30;985.7;;;18.3;100
56272;BME280;42177;48.914;18.160;2023-09-18T06:08:30;985.7;;;18.3;100
56272;BME280;42177;48.914;18.160;2023-09-18T06:13:30;985.7;;;18.6;100
56272;BME280;42177;48.914;18.160;2023-09-18T06:18:30;985.7;;;18.6;100
56272;BME280;42177;48.914;18.160;2023-09-18T06:23:30;985.6;;;18.8;100
56272;BME280;42177;48.914;18.160;2023-09-18T06:28:30;985.6;;;18.8;100
56272;BME280;42177;48.914;18.160;2023-09-18T06:33:30;985.4;;;18.8;100
56272;BME280;42177;48.914;18.160;2023-09-18T06:38:30;985.4;;;18.8;100
56272;BME280;42177;48.914;18.160;2023-09-18T06:43:30;985.5;;;19.5;100
56272;BME280;42177;48.914;18.160;2023-09-18T06:48:30;985.5;;;19.5;100
56272;BME280;42177;48.914;18.160;2023-09-18T06:53:30;985.6;;;20;100
56272;BME280;42177;48.914;18.160;2023-09-18T06:58:30;985.6;;;20;100
56272;BME280;42177;48.914;18.160;2023-09-18T07:03:30;985.6;;;20.8;100
56272;BME280;42177;48.914;18.160;2023-09-18T07:08:30;985.6;;;20.8;100
56272;BME280;42177;48.914;18.160;2023-09-18T07:13:30;985.5;;;21.5;96
56272;BME280;42177;48.914;18.160;2023-09-18T07:18:30;985.5;;;21.5;96
56272;BME280;42177;48.914;18.160;2023-09-18T07:23:30;985.4;;;21.8;93.4
56272;BME280;42177;48.914;18.160;2023-09-18T07:28:30;985.4;;;21.8;93.4
56272;BME280;42177;48.914;18.160;2023-09-18T07:33:30;985.3;;;22;91.3
56272;BME280;42177;48.914;18.160;2023-09-18T07:38:30;985.3;;;22;91.3
56272;BME280;42177;48.914;18.160;2023-09-18T07:43:30;985.4;;;22.5;89.2
56272;BME280;42177;48.914;18.160;2023-09-18T07:48:30;985.4;;;22.5;89.2
56272;BME280;42177;48.914;18.160;2023-09-18T07:53:30;985.3;;;22.6;87.4
56272;BME280;42177;48.914;18.160;2023-09-18T07:58:31;985.3;;;22.6;87.4
56272;BME280;42177;48.914;18.160;2023-09-18T08:03:30;985.2;;;22.9;86.4
56272;BME280;42177;48.914;18.160;2023-09-18T08:08:30;985.2;;;22.9;86.4
56272;BME280;42177;48.914;18.160;2023-09-18T08:13:30;984.9;;;23.4;83.8
56272;BME280;42177;48.914;18.160;2023-09-18T08:18:30;984.9;;;23.4;83.8
56272;BME280;42177;48.914;18.160;2023-09-18T08:23:30;985.1;;;23.8;81.4
56272;BME280;42177;48.914;18.160;2023-09-18T08:28:30;985.1;;;23.8;81.4
56272;BME280;42177;48.914;18.160;2023-09-18T08:33:30;985.1;;;24;80.7
56272;BME280;42177;48.914;18.160;2023-09-18T08:38:31;985.1;;;24;80.7
56272;BME280;42177;48.914;18.160;2023-09-18T08:43:31;984.9;;;24.2;77.2
56272;BME280;42177;48.914;18.160;2023-09-18T08:48:30;984.9;;;24.2;77.2
56272;BME280;42177;48.914;18.160;2023-09-18T08:53:30;985.1;;;24.6;73.5
56272;BME280;42177;48.914;18.160;2023-09-18T08:58:32;985.1;;;24.6;73.5
56272;BME280;42177;48.914;18.160;2023-09-18T09:03:30;985;;;24.8;70.3
56272;BME280;42177;48.914;18.160;2023-09-18T09:08:30;985;;;24.8;70.3
56272;BME280;42177;48.914;18.160;2023-09-18T09:13:30;984.8;;;25.4;67.9
56272;BME280;42177;48.914;18.160;2023-09-18T09:18:31;984.8;;;25.4;67.9
56272;BME280;42177;48.914;18.160;2023-09-18T09:23:44;984.8;;;25.4;65.5
56272;BME280;42177;48.914;18.160;2023-09-18T09:28:30;984.8;;;25.4;65.5
56272;BME280;42177;48.914;18.160;2023-09-18T09:33:31;984.7;;;25.5;64.6
56272;BME280;42177;48.914;18.160;2023-09-18T09:38:31;984.7;;;25.5;64.6
56272;BME280;42177;48.914;18.160;2023-09-18T09:43:31;984.9;;;25.8;63
56272;BME280;42177;48.914;18.160;2023-09-18T09:48:30;984.9;;;25.8;63
56272;BME280;42177;48.914;18.160;2023-09-18T09:53:46;984.7;;;26.1;61.5
56272;BME280;42177;48.914;18.160;2023-09-18T09:58:30;984.7;;;26.1;61.5
56272;BME280;42177;48.914;18.160;2023-09-18T10:03:30;984.6;;;26.4;61.2
56272;BME280;42177;48.914;18.160;2023-09-18T10:08:30;984.6;;;26.4;61.2
56272;BME280;42177;48.914;18.160;2023-09-18T10:13:32;984.5;;;26.5;57.3
56272;BME280;42177;48.914;18.160;2023-09-18T10:18:32;984.5;;;26.5;57.3
56272;BME280;42177;48.914;18.160;2023-09-18T10:23:33;984.3;;;26.4;57.6
56272;BME280;42177;48.914;18.160;2023-09-18T10:28:30;984.3;;;26.4;57.6
56272;BME280;42177;48.914;18.160;2023-09-18T10:33:30;984.3;;;27.2;53.9
56272;BME280;42177;48.914;18.160;2023-09-18T10:38:30;984.3;;;27.2;53.9
56272;BME280;42177;48.914;18.160;2023-09-18T10:43:30;984.2;;;26.6;54.9
56272;BME280;42177;48.914;18.160;2023-09-18T10:48:30;984.2;;;26.6;54.9
56272;BME280;42177;48.914;18.160;2023-09-18T10:53:31;984.2;;;27.1;53.3
56272;BME280;42177;48.914;18.160;2023-09-18T10:58:30;984.2;;;27.1;53.3
56272;BME280;42177;48.914;18.160;2023-09-18T11:03:32;984.1;;;27.5;52.2
56272;BME280;42177;48.914;18.160;2023-09-18T11:08:31;984.1;;;27.5;52.2
56272;BME280;42177;48.914;18.160;2023-09-18T11:13:31;984.1;;;27.6;51.3
56272;BME280;42177;48.914;18.160;2023-09-18T11:18:32;984.1;;;27.6;51.3
56272;BME280;42177;48.914;18.160;2023-09-18T11:23:34;983.9;;;28.3;49.6
56272;BME280;42177;48.914;18.160;2023-09-18T11:28:30;983.9;;;28.3;49.6
56272;BME280;42177;48.914;18.160;2023-09-18T11:33:31;983.8;;;28.2;49.4
56272;BME280;42177;48.914;18.160;2023-09-18T11:38:30;983.8;;;28.2;49.4
56272;BME280;42177;48.914;18.160;2023-09-18T11:43:30;983.6;;;27.6;51.5
56272;BME280;42177;48.914;18.160;2023-09-18T11:48:30;983.6;;;27.6;51.5
56272;BME280;42177;48.914;18.160;2023-09-18T11:53:33;983.5;;;27.6;51.1
56272;BME280;42177;48.914;18.160;2023-09-18T11:58:30;983.5;;;27.6;51.1
56272;BME280;42177;48.914;18.160;2023-09-18T12:03:30;983.4;;;28.1;50.1
56272;BME280;42177;48.914;18.160;2023-09-18T12:08:31;983.4;;;28.1;50.1
56272;BME280;42177;48.914;18.160;2023-09-18T12:13:31;983.4;;;27.6;51.2
56272;BME280;42177;48.914;18.160;2023-09-18T12:18:31;983.4;;;27.6;51.2
56272;BME280;42177;48.914;18.160;2023-09-18T12:23:38;983.4;;;27.9;50.1
56272;BME280;42177;48.914;18.160;2023-09-18T12:28:30;983.4;;;27.9;50.1
56272;BME280;42177;48.914;18.160;2023-09-18T12:33:33;983.5;;;27.4;50.7
56272;BME280;42177;48.914;18.160;2023-09-18T12:38:31;983.5;;;27.4;50.7
56272;BME280;42177;48.914;18.160;2023-09-18T12:43:31;983.3;;;28.6;48
56272;BME280;42177;48.914;18.160;2023-09-18T12:48:31;983.3;;;28.6;48
56272;BME280;42177;48.914;18.160;2023-09-18T12:53:31;983.2;;;28;49.3
56272;BME280;42177;48.914;18.160;2023-09-18T12:58:31;983.2;;;28;49.3
56272;BME280;42177;48.914;18.160;2023-09-18T13:03:31;983.2;;;27.6;50.2
56272;BME280;42177;48.914;18.160;2023-09-18T13:08:31;983.2;;;27.6;50.2
56272;BME280;42177;48.914;18.160;2023-09-18T13:13:31;983.2;;;27.7;49.5
56272;BME280;42177;48.914;18.160;2023-09-18T13:18:31;983.2;;;27.7;49.5
56272;BME280;42177;48.914;18.160;2023-09-18T13:23:31;982.8;;;27.3;50.8
56272;BME280;42177;48.914;18.160;2023-09-18T13:28:31;982.8;;;27.3;50.8
56272;BME280;42177;48.914;18.160;2023-09-18T13:33:31;982.7;;;26.6;52.3
56272;BME280;42177;48.914;18.160;2023-09-18T13:38:31;982.7;;;26.6;52.3
56272;BME280;42177;48.914;18.160;2023-09-18T13:43:30;982.5;;;26.5;54
56272;BME280;42177;48.914;18.160;2023-09-18T13:48:31;982.5;;;26.5;54
56272;BME280;42177;48.914;18.160;2023-09-18T13:53:31;982.5;;;27.1;52.6
56272;BME280;42177;48.914;18.160;2023-09-18T13:58:31;982.5;;;27.1;52.6
56272;BME280;42177;48.914;18.160;2023-09-18T14:03:31;982.2;;;27.5;51.6
56272;BME280;42177;48.914;18.160;2023-09-18T14:08:31;982.2;;;27.5;51.6
56272;BME280;42177;48.914;18.160;2023-09-18T14:13:31;982.1;;;27.1;52.4
56272;BME280;42177;48.914;18.160;2023-09-18T14:18:30;982.1;;;27.1;52.4
56272;BME280;42177;48.914;18.160;2023-09-18T14:23:31;981.9;;;26.9;53.5
56272;BME280;42177;48.914;18.160;2023-09-18T14:28:31;981.9;;;26.9;53.5
56272;BME280;42177;48.914;18.160;2023-09-18T14:33:31;981.8;;;26.9;53.5
56272;BME280;42177;48.914;18.160;2023-09-18T14:38:30;981.8;;;26.9;53.5
56272;BME280;42177;48.914;18.160;2023-09-18T14:43:31;981.8;;;26.7;53.8
56272;BME280;42177;48.914;18.160;2023-09-18T14:48:31;981.8;;;26.7;53.8
56272;BME280;42177;48.914;18.160;2023-09-18T14:53:31;981.8;;;26.7;54.1
56272;BME280;42177;48.914;18.160;2023-09-18T14:58:31;981.8;;;26.7;54.1
56272;BME280;42177;48.914;18.160;2023-09-18T15:03:31;981.7;;;26.6;54.3
56272;BME280;42177;48.914;18.160;2023-09-18T15:08:31;981.7;;;26.6;54.3
56272;BME280;42177;48.914;18.160;2023-09-18T15:13:31;981.5;;;26.6;54.7
56272;BME280;42177;48.914;18.160;2023-09-18T15:18:31;981.5;;;26.6;54.7
56272;BME280;42177;48.914;18.160;2023-09-18T15:23:31;981.3;;;26.1;56.3
56272;BME280;42177;48.914;18.160;2023-09-18T15:28:31;981.3;;;26.1;56.3
56272;BME280;42177;48.914;18.160;2023-09-18T15:33:31;981.3;;;25.9;56.7
56272;BME280;42177;48.914;18.160;2023-09-18T15:38:31;981.3;;;25.9;56.7
56272;BME280;42177;48.914;18.160;2023-09-18T15:43:31;981;;;25.6;58
56272;BME280;42177;48.914;18.160;2023-09-18T15:48:31;981;;;25.6;58
56272;BME280;42177;48.914;18.160;2023-09-18T15:53:31;981;;;25.4;58.5
56272;BME280;42177;48.914;18.160;2023-09-18T15:58:31;981;;;25.4;58.5
56272;BME280;42177;48.914;18.160;2023-09-18T16:03:31;981;;;25.2;59.1
56272;BME280;42177;48.914;18.160;2023-09-18T16:08:31;981;;;25.2;59.1
56272;BME280;42177;48.914;18.160;2023-09-18T16:13:31;980.9;;;25.1;60
56272;BME280;42177;48.914;18.160;2023-09-18T16:18:31;980.9;;;25.1;60
56272;BME280;42177;48.914;18.160;2023-09-18T16:23:31;980.9;;;24.9;60.6
56272;BME280;42177;48.914;18.160;2023-09-18T16:28:31;980.9;;;24.9;60.6
56272;BME280;42177;48.914;18.160;2023-09-18T16:33:31;980.8;;;24.9;61.1
56272;BME280;42177;48.914;18.160;2023-09-18T16:38:31;980.8;;;24.9;61.1
56272;BME280;42177;48.914;18.160;2023-09-18T16:43:31;980.6;;;24.6;62.1
56272;BME280;42177;48.914;18.160;2023-09-18T16:48:31;980.6;;;24.6;62.1
56272;BME280;42177;48.914;18.160;2023-09-18T16:53:31;980.5;;;24.5;62.5
56272;BME280;42177;48.914;18.160;2023-09-18T16:58:31;980.5;;;24.5;62.5
56272;BME280;42177;48.914;18.160;2023-09-18T17:03:31;980.3;;;24.4;62.5
56272;BME280;42177;48.914;18.160;2023-09-18T17:08:31;980.3;;;24.4;62.5
56272;BME280;42177;48.914;18.160;2023-09-18T17:13:31;980.5;;;24.4;62.5
56272;BME280;42177;48.914;18.160;2023-09-18T17:18:31;980.5;;;24.4;62.5
56272;BME280;42177;48.914;18.160;2023-09-18T17:23:31;980.5;;;24.4;62.5
56272;BME280;42177;48.914;18.160;2023-09-18T17:28:31;980.5;;;24.4;62.5
56272;BME280;42177;48.914;18.160;2023-09-18T17:33:31;980.3;;;24.3;62.9
56272;BME280;42177;48.914;18.160;2023-09-18T17:38:31;980.3;;;24.3;62.9
56272;BME280;42177;48.914;18.160;2023-09-18T17:43:31;980.3;;;24.4;62.7
56272;BME280;42177;48.914;18.160;2023-09-18T17:48:31;980.3;;;24.4;62.7
56272;BME280;42177;48.914;18.160;2023-09-18T17:53:31;980.6;;;24.3;63
56272;BME280;42177;48.914;18.160;2023-09-18T17:58:31;980.6;;;24.3;63
56272;BME280;42177;48.914;18.160;2023-09-18T18:03:31;980.5;;;24.3;63.4
56272;BME280;42177;48.914;18.160;2023-09-18T18:08:31;980.5;;;24.3;63.4
56272;BME280;42177;48.914;18.160;2023-09-18T18:13:31;980.3;;;24.3;63
56272;BME280;42177;48.914;18.160;2023-09-18T18:18:31;980.3;;;24.3;63
56272;BME280;42177;48.914;18.160;2023-09-18T18:23:31;980.3;;;24.2;63.3
56272;BME280;42177;48.914;18.160;2023-09-18T18:28:31;980.3;;;24.2;63.3
56272;BME280;42177;48.914;18.160;2023-09-18T18:33:31;980.3;;;24.2;63.2
56272;BME280;42177;48.914;18.160;2023-09-18T18:38:31;980.3;;;24.2;63.2
56272;BME280;42177;48.914;18.160;2023-09-18T18:43:31;980;;;24.2;63.2
56272;BME280;42177;48.914;18.160;2023-09-18T18:48:31;980;;;24.2;63.2
56272;BME280;42177;48.914;18.160;2023-09-18T18:53:31;979.9;;;24.3;62.3
56272;BME280;42177;48.914;18.160;2023-09-18T18:58:31;979.9;;;24.3;62.3
56272;BME280;42177;48.914;18.160;2023-09-18T19:03:31;979.6;;;24.3;62
56272;BME280;42177;48.914;18.160;2023-09-18T19:08:32;979.6;;;24.3;62
56272;BME280;42177;48.914;18.160;2023-09-18T19:13:31;979.6;;;24.2;62.8
56272;BME280;42177;48.914;18.160;2023-09-18T19:18:31;979.6;;;24.2;62.8
56272;BME280;42177;48.914;18.160;2023-09-18T19:23:31;979.5;;;24.1;64
56272;BME280;42177;48.914;18.160;2023-09-18T19:28:31;979.5;;;24.1;64
56272;BME280;42177;48.914;18.160;2023-09-18T19:33:31;979.5;;;23.8;67.6
56272;BME280;42177;48.914;18.160;2023-09-18T19:38:31;979.5;;;23.8;67.6
56272;BME280;42177;48.914;18.160;2023-09-18T19:43:31;979.3;;;23.8;68.2
56272;BME280;42177;48.914;18.160;2023-09-18T19:48:31;979.3;;;23.8;68.2
56272;BME280;42177;48.914;18.160;2023-09-18T19:53:31;979.4;;;23.8;67.3
56272;BME280;42177;48.914;18.160;2023-09-18T19:58:31;979.4;;;23.8;67.3
56272;BME280;42177;48.914;18.160;2023-09-18T20:03:31;979.3;;;23.7;68.4
56272;BME280;42177;48.914;18.160;2023-09-18T20:08:31;979.3;;;23.7;68.4
56272;BME280;42177;48.914;18.160;2023-09-18T20:13:31;979.1;;;23.4;72.2
56272;BME280;42177;48.914;18.160;2023-09-18T20:18:31;979.1;;;23.4;72.2
56272;BME280;42177;48.914;18.160;2023-09-18T20:23:31;979.3;;;23.2;74
56272;BME280;42177;48.914;18.160;2023-09-18T20:28:31;979.3;;;23.2;74
56272;BME280;42177;48.914;18.160;2023-09-18T20:33:31;979.4;;;23.3;72.8
56272;BME280;42177;48.914;18.160;2023-09-18T20:38:31;979.4;;;23.3;72.8
56272;BME280;42177;48.914;18.160;2023-09-18T20:43:31;979.3;;;23.4;72
56272;BME280;42177;48.914;18.160;2023-09-18T20:48:31;979.3;;;23.4;72
56272;BME280;42177;48.914;18.160;2023-09-18T20:53:31;979.2;;;23.3;73
56272;BME280;42177;48.914;18.160;2023-09-18T20:58:31;979.2;;;23.3;73
56272;BME280;42177;48.914;18.160;2023-09-18T21:03:31;979.2;;;23.3;72.6
56272;BME280;42177;48.914;18.160;2023-09-18T21:08:31;979.2;;;23.3;72.6
56272;BME280;42177;48.914;18.160;2023-09-18T21:13:31;979.3;;;23.3;72.2
56272;BME280;42177;48.914;18.160;2023-09-18T21:18:32;979.3;;;23.3;72.2
56272;BME280;42177;48.914;18.160;2023-09-18T21:23:31;979.3;;;23.2;74.5
56272;BME280;42177;48.914;18.160;2023-09-18T21:28:31;979.3;;;23.2;74.5
56272;BME280;42177;48.914;18.160;2023-09-18T21:33:31;979.3;;;23;75.7
56272;BME280;42177;48.914;18.160;2023-09-18T21:38:31;979.3;;;23;75.7
56272;BME280;42177;48.914;18.160;2023-09-18T21:43:31;979.2;;;22.9;78.3
56272;BME280;42177;48.914;18.160;2023-09-18T21:48:31;979.2;;;22.9;78.3
56272;BME280;42177;48.914;18.160;2023-09-18T21:53:31;979.2;;;22.9;79.7
56272;BME280;42177;48.914;18.160;2023-09-18T21:58:31;979.2;;;22.9;79.7
56272;BME280;42177;48.914;18.160;2023-09-18T22:03:34;979.1;;;22.8;81.7
56272;BME280;42177;48.914;18.160;2023-09-18T22:08:31;979.1;;;22.8;81.7
56272;BME280;42177;48.914;18.160;2023-09-18T22:13:31;979.1;;;22.7;83.3
56272;BME280;42177;48.914;18.160;2023-09-18T22:18:31;979.1;;;22.7;83.3
56272;BME280;42177;48.914;18.160;2023-09-18T22:23:31;979.2;;;22.4;87.4
56272;BME280;42177;48.914;18.160;2023-09-18T22:28:31;979.2;;;22.4;87.4
56272;BME280;42177;48.914;18.160;2023-09-18T22:33:31;979.3;;;22.4;89.6
56272;BME280;42177;48.914;18.160;2023-09-18T22:38:34;979.3;;;22.4;89.6
56272;BME280;42177;48.914;18.160;2023-09-18T22:58:31;979.1;;;22.4;91
56272;BME280;42177;48.914;18.160;2023-09-18T23:03:31;979;;;22.4;92.3
56272;BME280;42177;48.914;18.160;2023-09-18T23:08:31;979;;;22.4;92.3
56272;BME280;42177;48.914;18.160;2023-09-18T23:13:31;978.9;;;22;94.7
56272;BME280;42177;48.914;18.160;2023-09-18T23:18:31;978.9;;;22;94.7
56272;BME280;42177;48.914;18.160;2023-09-18T23:23:31;979;;;21.9;96.5
56272;BME280;42177;48.914;18.160;2023-09-18T23:28:31;979;;;21.9;96.5
56272;BME280;42177;48.914;18.160;2023-09-18T23:33:31;979;;;21.8;97.5
56272;BME280;42177;48.914;18.160;2023-09-18T23:38:31;979;;;21.8;97.5
56272;BME280;42177;48.914;18.160;2023-09-18T23:43:31;978.8;;;22;95.7
56272;BME280;42177;48.914;18.160;2023-09-18T23:48:31;978.8;;;22;95.7
56272;BME280;42177;48.914;18.160;2023-09-18T23:53:31;978.8;;;21.9;97.6
56272;BME280;42177;48.914;18.160;2023-09-18T23:58:31;978.8;;;21.9;97.6
